createdAt,value
2024-01-11T00:04:04.043Z,89.75
2024-01-11T00:09:06.938Z,89.80
2024-01-11T00:14:08.799Z,88.30
2024-01-11T00:19:10.409Z,88.66
2024-01-11T00:24:13.349Z,88.53
2024-01-11T00:29:15.115Z,89.97
2024-01-11T00:34:16.719Z,90.00
2024-01-11T00:39:19.669Z,89.23
2024-01-11T00:44:21.249Z,89.76
2024-01-11T00:49:22.938Z,89.09
2024-01-11T00:54:25.889Z,89.48
2024-01-11T00:59:27.491Z,89.61
2024-01-11T01:04:29.149Z,89.12
2024-01-11T01:09:32.328Z,90.14
2024-01-11T01:14:34.092Z,89.01
2024-01-11T01:19:35.882Z,89.03
2024-01-11T01:24:38.882Z,89.09
2024-01-11T01:29:40.568Z,89.12
2024-01-11T01:34:42.144Z,89.42
2024-01-11T01:39:45.037Z,89.10
2024-01-11T01:44:46.666Z,89.11
2024-01-11T01:49:50.238Z,89.43
2024-01-11T01:54:53.780Z,89.77
2024-01-11T01:59:55.567Z,89.95
2024-01-11T02:04:57.902Z,89.26
2024-01-11T02:10:00.907Z,88.77
2024-01-11T02:15:02.627Z,89.62
2024-01-11T02:20:04.930Z,89.31
2024-01-11T02:25:08.366Z,89.38
2024-01-11T02:30:11.115Z,89.50
2024-01-11T02:35:13.666Z,89.76
2024-01-11T02:40:16.727Z,91.00
2024-01-11T02:45:18.260Z,91.61
2024-01-11T02:50:19.864Z,91.59
2024-01-11T02:55:22.886Z,91.93
2024-01-11T03:00:24.418Z,91.44
2024-01-11T03:05:26.044Z,91.49
2024-01-11T03:10:28.993Z,91.82
2024-01-11T03:15:30.492Z,91.89
2024-01-11T03:20:32.116Z,91.51
2024-01-11T03:25:34.969Z,92.35
2024-01-11T03:30:36.684Z,91.99
2024-01-11T03:35:38.512Z,91.76
2024-01-11T03:40:41.494Z,92.60
2024-01-11T03:45:42.979Z,92.12
2024-01-11T03:50:44.618Z,92.08
2024-01-11T03:55:47.542Z,92.22
2024-01-11T04:00:49.165Z,92.61
2024-01-11T04:05:50.851Z,92.10
2024-01-11T04:10:53.780Z,92.03
2024-01-11T04:15:55.376Z,92.16
2024-01-11T04:20:56.928Z,92.21
2024-01-11T04:25:59.888Z,91.72
2024-01-11T04:31:01.508Z,91.96
2024-01-11T04:36:03.444Z,91.83
2024-01-11T04:41:09.763Z,92.01
2024-01-11T04:46:15.389Z,92.11
2024-01-11T04:51:18.509Z,91.84
2024-01-11T04:56:21.670Z,92.23
2024-01-11T05:01:23.289Z,91.70
2024-01-11T05:06:24.838Z,92.30
2024-01-11T05:11:27.945Z,91.72
2024-01-11T05:16:29.873Z,91.94
2024-01-11T05:21:31.502Z,91.84
2024-01-11T05:26:34.468Z,91.32
2024-01-11T05:31:36.183Z,91.69
2024-01-11T05:36:37.924Z,92.01
2024-01-11T05:41:44.070Z,91.91
2024-01-11T05:46:45.645Z,92.07
2024-01-11T05:51:47.212Z,91.79
2024-01-11T05:56:50.162Z,91.33
2024-01-11T06:01:51.800Z,91.24
2024-01-11T06:06:53.372Z,91.20
2024-01-11T06:11:56.292Z,91.16
2024-01-11T06:16:57.978Z,91.14
2024-01-11T06:21:59.627Z,91.25
2024-01-11T06:27:02.564Z,90.81
2024-01-11T06:32:04.890Z,90.74
2024-01-11T06:37:06.418Z,90.78
2024-01-11T06:42:09.440Z,90.76
2024-01-11T06:47:11.188Z,91.13
2024-01-11T06:52:12.832Z,90.82
2024-01-11T06:57:15.688Z,91.43
2024-01-11T07:02:17.318Z,90.74
2024-01-11T07:07:18.888Z,91.44
2024-01-11T07:12:21.751Z,91.75
2024-01-11T07:17:23.371Z,91.40
2024-01-11T07:22:25.017Z,90.65
2024-01-11T07:27:27.913Z,91.31
2024-01-11T07:32:29.754Z,91.44
2024-01-11T07:37:31.325Z,91.26
2024-01-11T07:42:34.271Z,90.49
2024-01-11T07:47:35.915Z,90.41
2024-01-11T07:52:37.747Z,90.93
2024-01-11T07:57:41.220Z,90.62
2024-01-11T08:02:43.098Z,90.17
2024-01-11T08:07:44.939Z,89.80
2024-01-11T08:12:47.947Z,90.67
2024-01-11T08:17:49.696Z,90.35
2024-01-11T08:22:51.380Z,90.61
2024-01-11T08:27:54.304Z,90.37
2024-01-11T08:32:56.053Z,90.18
2024-01-11T08:37:57.660Z,89.81
2024-01-11T08:43:00.635Z,89.70
2024-01-11T08:48:02.382Z,90.30
2024-01-11T08:53:04.329Z,89.95
2024-01-11T08:58:07.200Z,89.78
2024-01-11T09:03:08.884Z,90.20
2024-01-11T09:08:10.607Z,90.16
2024-01-11T09:13:14.994Z,89.54
2024-01-11T09:18:16.930Z,89.63
2024-01-11T09:23:18.667Z,89.07
2024-01-11T09:28:21.621Z,89.41
2024-01-11T09:33:23.315Z,89.37
2024-01-11T09:38:25.113Z,88.62
2024-01-11T09:43:28.271Z,88.45
2024-01-11T09:48:30.962Z,87.98
2024-01-11T09:53:34.018Z,88.42
2024-01-11T09:58:37.504Z,87.72
2024-01-11T10:03:40.480Z,88.06
2024-01-11T10:08:42.124Z,87.63
2024-01-11T10:13:45.089Z,86.46
2024-01-11T10:18:46.877Z,87.06
2024-01-11T10:23:50.038Z,86.72
2024-01-11T10:28:53.015Z,87.17
2024-01-11T10:33:54.662Z,86.34
2024-01-11T10:38:57.051Z,87.27
2024-01-11T10:44:01.941Z,86.79
2024-01-11T10:49:05.782Z,87.19
2024-01-11T10:54:07.551Z,87.12
2024-01-11T10:59:11.200Z,86.75
2024-01-11T11:04:14.460Z,87.41
2024-01-11T11:09:16.646Z,86.99
2024-01-11T11:14:20.820Z,87.11
2024-01-11T11:19:22.783Z,87.44
2024-01-11T11:24:24.426Z,87.43
2024-01-11T11:29:27.446Z,87.05
2024-01-11T11:34:41.906Z,87.44
2024-01-11T11:39:43.606Z,87.54
2024-01-11T11:44:51.533Z,87.09
2024-01-11T11:50:04.857Z,87.00
2024-01-11T11:55:08.418Z,87.62
2024-01-11T12:00:13.419Z,88.14
2024-01-11T12:05:15.640Z,87.85
2024-01-11T12:10:17.512Z,87.33
2024-01-11T12:15:20.440Z,86.98
2024-01-11T12:20:21.995Z,86.47
2024-01-11T12:25:23.806Z,85.35
2024-01-11T12:30:27.120Z,83.56
2024-01-11T12:35:29.261Z,83.89
2024-01-11T12:40:32.881Z,83.37
2024-01-11T12:45:36.674Z,84.56
2024-01-11T12:50:38.399Z,84.42
2024-01-11T12:55:48.327Z,81.20
2024-01-11T13:00:57.890Z,82.70
2024-01-11T13:05:59.512Z,80.15
2024-01-11T13:11:01.164Z,82.94
2024-01-11T13:16:04.637Z,82.77
2024-01-11T13:21:06.650Z,82.76
2024-01-11T13:26:08.584Z,80.06
2024-01-11T13:31:11.662Z,79.89
2024-01-11T13:36:13.358Z,80.89
2024-01-11T13:41:15.029Z,82.02
2024-01-11T13:46:18.045Z,82.88
2024-01-11T13:51:19.758Z,82.70
2024-01-11T13:56:21.510Z,83.97
2024-01-11T14:01:24.566Z,84.38
2024-01-11T14:06:26.227Z,83.51
2024-01-11T14:11:27.954Z,83.29
2024-01-11T14:16:30.875Z,83.21
2024-01-11T14:21:32.406Z,83.59
2024-01-11T14:26:34.034Z,82.17
2024-01-11T14:31:37.000Z,82.23
2024-01-11T14:36:38.772Z,81.63
2024-01-11T14:41:40.395Z,81.49
2024-01-11T14:46:43.373Z,81.41
2024-01-11T14:51:44.973Z,80.53
2024-01-11T14:56:47.258Z,79.16
2024-01-11T15:01:50.384Z,79.17
2024-01-11T15:06:51.944Z,76.51
2024-01-11T15:11:53.716Z,77.89
2024-01-11T15:16:56.782Z,78.08
2024-01-11T15:21:58.372Z,76.79
2024-01-11T15:26:59.962Z,76.18
2024-01-11T15:32:02.916Z,78.34
2024-01-11T15:37:04.906Z,79.23
2024-01-11T15:42:06.627Z,80.13
2024-01-11T15:47:09.568Z,80.38
2024-01-11T15:52:11.142Z,79.56
2024-01-11T15:57:13.221Z,79.24
2024-01-11T16:02:16.857Z,80.46
2024-01-11T16:07:18.500Z,80.34
2024-01-11T16:12:20.046Z,80.55
2024-01-11T16:17:22.988Z,81.01
2024-01-11T16:22:24.686Z,84.83
2024-01-11T16:27:26.318Z,83.76
2024-01-11T16:32:29.250Z,85.64
2024-01-11T16:37:30.834Z,85.31
2024-01-11T16:42:33.105Z,84.70
2024-01-11T16:47:36.377Z,83.56
2024-01-11T16:52:38.258Z,83.20
2024-01-11T16:57:39.772Z,83.32
2024-01-11T17:02:42.817Z,83.76
2024-01-11T17:07:44.499Z,83.77
2024-01-11T17:12:46.069Z,83.90
2024-01-11T17:17:49.219Z,84.15
2024-01-11T17:22:52.332Z,83.61
2024-01-11T17:27:54.577Z,83.70
2024-01-11T17:32:57.574Z,85.23
2024-01-11T17:37:59.226Z,85.47
2024-01-11T17:43:00.761Z,86.05
2024-01-11T17:48:04.288Z,85.71
2024-01-11T17:53:05.923Z,84.16
2024-01-11T17:58:07.596Z,82.82
2024-01-11T18:03:10.480Z,83.22
2024-01-11T18:08:12.088Z,82.71
2024-01-11T18:13:13.733Z,84.22
2024-01-11T18:18:16.744Z,84.66
2024-01-11T18:23:18.470Z,84.50
2024-01-11T18:28:20.378Z,85.84
2024-01-11T18:33:24.786Z,84.78
2024-01-11T18:38:26.478Z,85.60
2024-01-11T18:43:28.080Z,86.07
2024-01-11T18:48:31.123Z,85.81
2024-01-11T18:53:32.793Z,84.39
2024-01-11T18:58:34.366Z,83.45
2024-01-11T19:03:37.615Z,85.36
2024-01-11T19:08:39.228Z,86.26
2024-01-11T19:13:40.906Z,83.16
2024-01-11T19:18:44.043Z,85.07
2024-01-11T19:23:45.811Z,84.77
2024-01-11T19:28:47.397Z,83.46
2024-01-11T19:33:50.402Z,83.94
2024-01-11T19:38:52.148Z,85.33
2024-01-11T19:43:53.810Z,85.80
2024-01-11T19:48:56.923Z,86.53
2024-01-11T19:53:58.621Z,86.46
2024-01-11T19:59:00.292Z,86.97
2024-01-11T20:04:03.807Z,87.04
2024-01-11T20:09:05.415Z,87.01
2024-01-11T20:14:07.046Z,86.58
2024-01-11T20:19:10.144Z,85.24
2024-01-11T20:24:11.872Z,83.60
2024-01-11T20:29:13.460Z,82.81
2024-01-11T20:34:16.483Z,83.17
2024-01-11T20:39:18.254Z,83.15
2024-01-11T20:44:19.951Z,83.14
2024-01-11T20:49:22.980Z,82.80
2024-01-11T20:54:24.611Z,83.18
2024-01-11T20:59:26.300Z,83.00
2024-01-11T21:04:29.253Z,82.08
2024-01-11T21:09:31.231Z,80.93
2024-01-11T21:14:32.891Z,81.43
2024-01-11T21:19:35.983Z,80.21
2024-01-11T21:24:37.660Z,80.27
2024-01-11T21:29:39.408Z,80.23
2024-01-11T21:34:42.409Z,80.35
2024-01-11T21:39:44.054Z,81.99
2024-01-11T21:44:45.761Z,82.20
2024-01-11T21:49:49.599Z,82.63
2024-01-11T21:54:51.263Z,79.59
2024-01-11T21:59:52.981Z,80.04
2024-01-11T22:04:55.913Z,79.87
2024-01-11T22:09:57.492Z,80.20
2024-01-11T22:14:59.914Z,79.93
2024-01-11T22:20:03.194Z,78.04
2024-01-11T22:25:05.619Z,80.16
2024-01-11T22:30:08.321Z,80.42
2024-01-11T22:35:11.934Z,78.19
2024-01-11T22:40:13.687Z,77.56
2024-01-11T22:45:15.346Z,77.50
2024-01-11T22:50:18.278Z,79.69
2024-01-11T22:55:19.902Z,78.11
2024-01-11T23:00:22.148Z,78.96
2024-01-11T23:05:25.446Z,80.07
2024-01-11T23:10:27.053Z,78.08
2024-01-11T23:15:28.602Z,79.11
2024-01-11T23:20:32.656Z,79.39
2024-01-11T23:25:34.332Z,79.39
2024-01-11T23:30:36.048Z,79.36
2024-01-11T23:35:39.583Z,80.94
2024-01-11T23:40:41.278Z,79.46
2024-01-11T23:45:42.889Z,80.67
2024-01-11T23:50:45.864Z,80.36
2024-01-11T23:55:47.821Z,80.22
